sensor_id;sensor_type;location;lat;lon;timestamp;temperature;humidity
12847;DHT22;6492;48.128;8.320;2023-08-31T00:01:41;9.70;75.30
12847;DHT22;6492;48.128;8.320;2023-08-31T00:05:43;9.60;75.20
12847;DHT22;6492;48.128;8.320;2023-08-31T00:09:46;9.60;75.30
12847;DHT22;6492;48.128;8.320;2023-08-31T00:13:48;9.50;75.30
12847;DHT22;6492;48.128;8.320;2023-08-31T00:17:50;9.50;75.50
12847;DHT22;6492;48.128;8.320;2023-08-31T00:21:52;9.50;75.70
12847;DHT22;6492;48.128;8.320;2023-08-31T00:25:55;9.50;75.90
12847;DHT22;6492;48.128;8.320;2023-08-31T00:29:57;9.50;76.00
12847;DHT22;6492;48.128;8.320;2023-08-31T00:33:59;9.50;76.00
12847;DHT22;6492;48.128;8.320;2023-08-31T00:38:04;9.40;75.80
12847;DHT22;6492;48.128;8.320;2023-08-31T00:42:07;9.40;75.90
12847;DHT22;6492;48.128;8.320;2023-08-31T00:46:09;9.40;76.10
12847;DHT22;6492;48.128;8.320;2023-08-31T00:50:11;9.40;76.30
12847;DHT22;6492;48.128;8.320;2023-08-31T00:54:13;9.40;76.30
12847;DHT22;6492;48.128;8.320;2023-08-31T00:58:16;9.40;76.40
12847;DHT22;6492;48.128;8.320;2023-08-31T01:02:22;9.40;76.50
12847;DHT22;6492;48.128;8.320;2023-08-31T01:06:35;9.50;76.60
12847;DHT22;6492;48.128;8.320;2023-08-31T01:10:43;9.40;76.50
12847;DHT22;6492;48.128;8.320;2023-08-31T01:14:56;9.40;76.50
12847;DHT22;6492;48.128;8.320;2023-08-31T01:19:00;9.40;77.20
12847;DHT22;6492;48.128;8.320;2023-08-31T01:23:06;9.30;76.60
12847;DHT22;6492;48.128;8.320;2023-08-31T01:27:09;9.20;77.10
12847;DHT22;6492;48.128;8.320;2023-08-31T01:31:11;9.10;76.30
12847;DHT22;6492;48.128;8.320;2023-08-31T01:35:16;9.00;76.00
12847;DHT22;6492;48.128;8.320;2023-08-31T01:39:24;8.90;76.90
12847;DHT22;6492;48.128;8.320;2023-08-31T01:43:30;8.80;76.20
12847;DHT22;6492;48.128;8.320;2023-08-31T01:47:34;8.70;76.00
12847;DHT22;6492;48.128;8.320;2023-08-31T01:51:36;8.60;76.00
12847;DHT22;6492;48.128;8.320;2023-08-31T01:55:38;8.60;76.00
12847;DHT22;6492;48.128;8.320;2023-08-31T01:59:41;8.60;76.20
12847;DHT22;6492;48.128;8.320;2023-08-31T02:03:43;8.60;76.20
12847;DHT22;6492;48.128;8.320;2023-08-31T02:07:45;8.50;76.20
12847;DHT22;6492;48.128;8.320;2023-08-31T02:11:47;8.50;76.20
12847;DHT22;6492;48.128;8.320;2023-08-31T02:15:52;8.50;76.40
12847;DHT22;6492;48.128;8.320;2023-08-31T02:19:54;8.60;76.40
12847;DHT22;6492;48.128;8.320;2023-08-31T02:23:56;8.60;76.50
12847;DHT22;6492;48.128;8.320;2023-08-31T02:27:57;8.60;76.60
12847;DHT22;6492;48.128;8.320;2023-08-31T02:32:12;8.60;76.60
12847;DHT22;6492;48.128;8.320;2023-08-31T02:36:14;8.60;76.70
12847;DHT22;6492;48.128;8.320;2023-08-31T02:40:16;8.60;76.70
12847;DHT22;6492;48.128;8.320;2023-08-31T02:44:17;8.60;76.70
12847;DHT22;6492;48.128;8.320;2023-08-31T02:48:21;8.60;76.70
12847;DHT22;6492;48.128;8.320;2023-08-31T02:52:22;8.60;76.80
12847;DHT22;6492;48.128;8.320;2023-08-31T02:56:24;8.50;76.70
12847;DHT22;6492;48.128;8.320;2023-08-31T03:00:26;8.40;76.50
12847;DHT22;6492;48.128;8.320;2023-08-31T03:04:30;8.30;76.50
12847;DHT22;6492;48.128;8.320;2023-08-31T03:08:31;8.20;76.50
12847;DHT22;6492;48.128;8.320;2023-08-31T03:12:33;8.10;76.40
12847;DHT22;6492;48.128;8.320;2023-08-31T03:16:35;8.10;76.40
12847;DHT22;6492;48.128;8.320;2023-08-31T03:20:38;8.10;76.40
12847;DHT22;6492;48.128;8.320;2023-08-31T03:24:40;8.00;76.30
12847;DHT22;6492;48.128;8.320;2023-08-31T03:28:41;8.00;77.20
12847;DHT22;6492;48.128;8.320;2023-08-31T03:32:43;7.90;76.40
12847;DHT22;6492;48.128;8.320;2023-08-31T03:36:46;8.00;76.40
12847;DHT22;6492;48.128;8.320;2023-08-31T03:40:55;8.00;76.50
12847;DHT22;6492;48.128;8.320;2023-08-31T03:44:57;8.10;76.70
12847;DHT22;6492;48.128;8.320;2023-08-31T03:48:59;8.20;76.70
12847;DHT22;6492;48.128;8.320;2023-08-31T03:53:02;8.40;77.00
12847;DHT22;6492;48.128;8.320;2023-08-31T03:57:04;8.40;76.90
12847;DHT22;6492;48.128;8.320;2023-08-31T04:01:06;8.50;77.20
12847;DHT22;6492;48.128;8.320;2023-08-31T04:05:08;8.50;77.10
12847;DHT22;6492;48.128;8.320;2023-08-31T04:09:11;8.50;77.10
12847;DHT22;6492;48.128;8.320;2023-08-31T04:13:13;8.60;77.10
12847;DHT22;6492;48.128;8.320;2023-08-31T04:17:17;8.70;77.20
12847;DHT22;6492;48.128;8.320;2023-08-31T04:21:19;8.80;77.20
12847;DHT22;6492;48.128;8.320;2023-08-31T04:25:22;8.80;77.30
12847;DHT22;6492;48.128;8.320;2023-08-31T04:29:24;8.80;77.30
12847;DHT22;6492;48.128;8.320;2023-08-31T04:33:26;8.70;77.30
12847;DHT22;6492;48.128;8.320;2023-08-31T04:37:30;8.80;77.30
12847;DHT22;6492;48.128;8.320;2023-08-31T04:41:33;8.80;77.20
12847;DHT22;6492;48.128;8.320;2023-08-31T04:45:34;8.80;77.20
12847;DHT22;6492;48.128;8.320;2023-08-31T04:49:36;8.90;77.40
12847;DHT22;6492;48.128;8.320;2023-08-31T04:53:38;8.80;77.30
12847;DHT22;6492;48.128;8.320;2023-08-31T04:57:41;8.80;77.30
12847;DHT22;6492;48.128;8.320;2023-08-31T05:01:43;8.80;77.40
12847;DHT22;6492;48.128;8.320;2023-08-31T05:05:44;8.80;77.40
12847;DHT22;6492;48.128;8.320;2023-08-31T05:09:46;8.80;77.40
12847;DHT22;6492;48.128;8.320;2023-08-31T05:13:49;8.90;77.40
12847;DHT22;6492;48.128;8.320;2023-08-31T05:17:51;8.90;77.50
12847;DHT22;6492;48.128;8.320;2023-08-31T05:21:53;9.00;77.30
12847;DHT22;6492;48.128;8.320;2023-08-31T05:25:55;9.10;77.50
12847;DHT22;6492;48.128;8.320;2023-08-31T05:29:58;9.20;77.40
12847;DHT22;6492;48.128;8.320;2023-08-31T05:34:00;9.30;77.40
12847;DHT22;6492;48.128;8.320;2023-08-31T05:38:02;9.40;77.40
12847;DHT22;6492;48.128;8.320;2023-08-31T05:42:04;9.50;77.50
12847;DHT22;6492;48.128;8.320;2023-08-31T05:46:07;9.50;77.60
12847;DHT22;6492;48.128;8.320;2023-08-31T05:50:09;9.50;77.60
12847;DHT22;6492;48.128;8.320;2023-08-31T05:54:11;9.50;77.60
12847;DHT22;6492;48.128;8.320;2023-08-31T05:58:13;9.50;77.60
12847;DHT22;6492;48.128;8.320;2023-08-31T06:02:16;9.50;77.70
12847;DHT22;6492;48.128;8.320;2023-08-31T06:06:18;9.50;77.70
12847;DHT22;6492;48.128;8.320;2023-08-31T06:10:20;9.50;77.80
12847;DHT22;6492;48.128;8.320;2023-08-31T06:14:23;9.50;77.80
12847;DHT22;6492;48.128;8.320;2023-08-31T06:18:26;9.50;77.70
12847;DHT22;6492;48.128;8.320;2023-08-31T06:22:28;9.50;77.80
12847;DHT22;6492;48.128;8.320;2023-08-31T06:26:30;9.50;78.00
12847;DHT22;6492;48.128;8.320;2023-08-31T06:30:31;9.40;77.90
12847;DHT22;6492;48.128;8.320;2023-08-31T06:34:37;9.30;78.70
12847;DHT22;6492;48.128;8.320;2023-08-31T06:38:38;9.20;77.80
12847;DHT22;6492;48.128;8.320;2023-08-31T06:42:40;9.20;77.90
12847;DHT22;6492;48.128;8.320;2023-08-31T06:46:42;9.20;77.90
12847;DHT22;6492;48.128;8.320;2023-08-31T06:50:46;9.30;78.00
12847;DHT22;6492;48.128;8.320;2023-08-31T06:54:48;9.30;77.80
12847;DHT22;6492;48.128;8.320;2023-08-31T06:58:50;9.40;77.70
12847;DHT22;6492;48.128;8.320;2023-08-31T07:02:53;9.50;77.50
12847;DHT22;6492;48.128;8.320;2023-08-31T07:06:57;9.70;77.10
12847;DHT22;6492;48.128;8.320;2023-08-31T07:10:59;9.70;75.00
12847;DHT22;6492;48.128;8.320;2023-08-31T07:15:02;9.80;71.70
12847;DHT22;6492;48.128;8.320;2023-08-31T07:19:10;9.80;68.40
12847;DHT22;6492;48.128;8.320;2023-08-31T07:23:13;9.90;61.90
12847;DHT22;6492;48.128;8.320;2023-08-31T07:27:15;9.90;54.90
12847;DHT22;6492;48.128;8.320;2023-08-31T07:31:23;9.90;48.90
12847;DHT22;6492;48.128;8.320;2023-08-31T07:35:25;10.10;50.40
12847;DHT22;6492;48.128;8.320;2023-08-31T07:39:28;10.30;49.10
12847;DHT22;6492;48.128;8.320;2023-08-31T07:43:30;10.50;48.40
12847;DHT22;6492;48.128;8.320;2023-08-31T07:47:32;10.70;39.50
12847;DHT22;6492;48.128;8.320;2023-08-31T07:51:33;11.00;34.20
12847;DHT22;6492;48.128;8.320;2023-08-31T07:55:38;11.40;33.40
12847;DHT22;6492;48.128;8.320;2023-08-31T07:59:40;11.80;32.80
12847;DHT22;6492;48.128;8.320;2023-08-31T08:03:42;12.00;23.30
12847;DHT22;6492;48.128;8.320;2023-08-31T08:07:45;12.20;23.60
12847;DHT22;6492;48.128;8.320;2023-08-31T08:11:48;12.30;21.50
12847;DHT22;6492;48.128;8.320;2023-08-31T08:15:49;12.60;17.10
12847;DHT22;6492;48.128;8.320;2023-08-31T08:19:51;13.00;18.20
12847;DHT22;6492;48.128;8.320;2023-08-31T08:23:53;13.40;14.20
12847;DHT22;6492;48.128;8.320;2023-08-31T08:27:56;13.80;14.50
12847;DHT22;6492;48.128;8.320;2023-08-31T08:31:59;14.40;12.00
12847;DHT22;6492;48.128;8.320;2023-08-31T08:36:01;15.00;9.90
12847;DHT22;6492;48.128;8.320;2023-08-31T08:40:03;15.40;9.10
12847;DHT22;6492;48.128;8.320;2023-08-31T08:44:07;15.70;7.80
12847;DHT22;6492;48.128;8.320;2023-08-31T08:48:09;15.90;6.30
12847;DHT22;6492;48.128;8.320;2023-08-31T08:52:11;16.00;5.20
12847;DHT22;6492;48.128;8.320;2023-08-31T08:56:13;15.70;4.70
12847;DHT22;6492;48.128;8.320;2023-08-31T09:00:17;15.60;3.80
12847;DHT22;6492;48.128;8.320;2023-08-31T09:04:19;15.60;6.60
12847;DHT22;6492;48.128;8.320;2023-08-31T09:08:26;15.80;3.10
12847;DHT22;6492;48.128;8.320;2023-08-31T09:12:27;15.80;3.50
12847;DHT22;6492;48.128;8.320;2023-08-31T09:16:33;15.80;2.20
12847;DHT22;6492;48.128;8.320;2023-08-31T09:20:45;15.70;4.00
12847;DHT22;6492;48.128;8.320;2023-08-31T09:24:47;15.70;2.80
12847;DHT22;6492;48.128;8.320;2023-08-31T09:28:49;15.80;4.70
12847;DHT22;6492;48.128;8.320;2023-08-31T09:32:53;16.10;1.10
12847;DHT22;6492;48.128;8.320;2023-08-31T09:36:55;16.00;1.00
12847;DHT22;6492;48.128;8.320;2023-08-31T09:41:03;15.90;1.60
12847;DHT22;6492;48.128;8.320;2023-08-31T09:45:06;15.90;1.00
12847;DHT22;6492;48.128;8.320;2023-08-31T09:49:10;15.90;3.10
12847;DHT22;6492;48.128;8.320;2023-08-31T09:53:16;16.20;3.00
12847;DHT22;6492;48.128;8.320;2023-08-31T09:57:18;16.50;1.70
12847;DHT22;6492;48.128;8.320;2023-08-31T10:01:22;16.50;1.30
12847;DHT22;6492;48.128;8.320;2023-08-31T10:05:25;17.00;2.80
12847;DHT22;6492;48.128;8.320;2023-08-31T10:09:27;17.70;1.10
12847;DHT22;6492;48.128;8.320;2023-08-31T10:13:30;17.80;1.00
12847;DHT22;6492;48.128;8.320;2023-08-31T10:17:36;17.20;1.00
12847;DHT22;6492;48.128;8.320;2023-08-31T10:21:40;16.90;1.00
12847;DHT22;6492;48.128;8.320;2023-08-31T10:26:04;16.60;1.00
12847;DHT22;6492;48.128;8.320;2023-08-31T10:30:25;16.40;2.70
12847;DHT22;6492;48.128;8.320;2023-08-31T10:34:36;16.60;1.00
12847;DHT22;6492;48.128;8.320;2023-08-31T10:38:40;16.50;1.00
12847;DHT22;6492;48.128;8.320;2023-08-31T10:42:43;16.40;1.50
12847;DHT22;6492;48.128;8.320;2023-08-31T10:46:46;16.50;1.00
12847;DHT22;6492;48.128;8.320;2023-08-31T10:50:48;16.50;1.20
12847;DHT22;6492;48.128;8.320;2023-08-31T10:54:55;16.90;1.00
12847;DHT22;6492;48.128;8.320;2023-08-31T10:58:58;17.20;1.30
12847;DHT22;6492;48.128;8.320;2023-08-31T11:03:03;17.30;1.10
12847;DHT22;6492;48.128;8.320;2023-08-31T11:07:12;17.40;1.00
12847;DHT22;6492;48.128;8.320;2023-08-31T11:11:19;17.30;1.00
12847;DHT22;6492;48.128;8.320;2023-08-31T11:15:22;17.40;1.00
12847;DHT22;6492;48.128;8.320;2023-08-31T11:19:25;17.60;1.00
12847;DHT22;6492;48.128;8.320;2023-08-31T11:23:27;18.30;1.00
12847;DHT22;6492;48.128;8.320;2023-08-31T11:27:30;18.50;1.00
12847;DHT22;6492;48.128;8.320;2023-08-31T11:31:32;18.10;1.00
12847;DHT22;6492;48.128;8.320;2023-08-31T11:35:35;17.90;1.00
12847;DHT22;6492;48.128;8.320;2023-08-31T11:39:37;18.00;1.00
12847;DHT22;6492;48.128;8.320;2023-08-31T11:43:41;18.00;1.00
12847;DHT22;6492;48.128;8.320;2023-08-31T11:47:44;18.00;1.00
12847;DHT22;6492;48.128;8.320;2023-08-31T11:51:48;18.00;1.00
12847;DHT22;6492;48.128;8.320;2023-08-31T11:55:52;17.90;1.00
12847;DHT22;6492;48.128;8.320;2023-08-31T11:59:56;18.00;1.00
12847;DHT22;6492;48.128;8.320;2023-08-31T12:03:58;18.30;1.00
12847;DHT22;6492;48.128;8.320;2023-08-31T12:08:01;18.80;1.00
12847;DHT22;6492;48.128;8.320;2023-08-31T12:12:03;18.90;1.00
12847;DHT22;6492;48.128;8.320;2023-08-31T12:16:12;18.90;1.00
12847;DHT22;6492;48.128;8.320;2023-08-31T12:20:14;18.90;1.00
12847;DHT22;6492;48.128;8.320;2023-08-31T12:24:16;18.70;1.00
12847;DHT22;6492;48.128;8.320;2023-08-31T12:28:20;18.70;1.00
12847;DHT22;6492;48.128;8.320;2023-08-31T12:32:23;18.80;1.00
12847;DHT22;6492;48.128;8.320;2023-08-31T12:36:25;18.90;1.00
12847;DHT22;6492;48.128;8.320;2023-08-31T12:40:27;19.00;1.00
12847;DHT22;6492;48.128;8.320;2023-08-31T12:44:29;19.30;1.00
12847;DHT22;6492;48.128;8.320;2023-08-31T12:48:33;19.50;1.00
12847;DHT22;6492;48.128;8.320;2023-08-31T12:52:35;19.30;1.00
12847;DHT22;6492;48.128;8.320;2023-08-31T12:56:36;18.90;1.00
12847;DHT22;6492;48.128;8.320;2023-08-31T13:00:38;18.60;1.00
12847;DHT22;6492;48.128;8.320;2023-08-31T13:04:41;18.20;1.00
12847;DHT22;6492;48.128;8.320;2023-08-31T13:08:44;17.90;1.00
12847;DHT22;6492;48.128;8.320;2023-08-31T13:12:46;17.60;1.00
12847;DHT22;6492;48.128;8.320;2023-08-31T13:16:47;17.80;1.00
12847;DHT22;6492;48.128;8.320;2023-08-31T13:20:51;17.90;1.00
12847;DHT22;6492;48.128;8.320;2023-08-31T13:24:53;18.10;1.00
12847;DHT22;6492;48.128;8.320;2023-08-31T13:28:55;18.40;1.00
12847;DHT22;6492;48.128;8.320;2023-08-31T13:32:57;18.60;1.00
12847;DHT22;6492;48.128;8.320;2023-08-31T13:37:00;18.60;1.00
12847;DHT22;6492;48.128;8.320;2023-08-31T13:41:02;18.60;1.00
12847;DHT22;6492;48.128;8.320;2023-08-31T13:45:06;18.10;1.00
12847;DHT22;6492;48.128;8.320;2023-08-31T13:49:08;17.90;1.00
12847;DHT22;6492;48.128;8.320;2023-08-31T13:53:11;18.00;1.00
12847;DHT22;6492;48.128;8.320;2023-08-31T13:57:13;18.20;1.00
12847;DHT22;6492;48.128;8.320;2023-08-31T14:01:17;18.20;1.00
12847;DHT22;6492;48.128;8.320;2023-08-31T14:05:19;18.20;1.00
12847;DHT22;6492;48.128;8.320;2023-08-31T14:09:23;18.00;1.00
12847;DHT22;6492;48.128;8.320;2023-08-31T14:13:24;18.00;1.00
12847;DHT22;6492;48.128;8.320;2023-08-31T14:17:26;18.20;1.00
12847;DHT22;6492;48.128;8.320;2023-08-31T14:21:28;18.60;1.00
12847;DHT22;6492;48.128;8.320;2023-08-31T14:25:35;18.80;1.00
12847;DHT22;6492;48.128;8.320;2023-08-31T14:29:38;18.90;1.00
12847;DHT22;6492;48.128;8.320;2023-08-31T14:33:39;18.80;1.00
12847;DHT22;6492;48.128;8.320;2023-08-31T14:37:41;18.50;1.00
12847;DHT22;6492;48.128;8.320;2023-08-31T14:41:44;18.50;1.00
12847;DHT22;6492;48.128;8.320;2023-08-31T14:45:47;18.70;1.00
12847;DHT22;6492;48.128;8.320;2023-08-31T14:49:49;18.60;1.00
12847;DHT22;6492;48.128;8.320;2023-08-31T14:53:51;18.60;1.00
12847;DHT22;6492;48.128;8.320;2023-08-31T14:57:54;18.20;1.00
12847;DHT22;6492;48.128;8.320;2023-08-31T15:01:56;17.90;1.00
12847;DHT22;6492;48.128;8.320;2023-08-31T15:05:58;17.60;1.00
12847;DHT22;6492;48.128;8.320;2023-08-31T15:10:00;17.40;1.00
12847;DHT22;6492;48.128;8.320;2023-08-31T15:14:06;17.20;1.00
12847;DHT22;6492;48.128;8.320;2023-08-31T15:18:08;17.20;1.00
12847;DHT22;6492;48.128;8.320;2023-08-31T15:22:09;17.10;1.60
12847;DHT22;6492;48.128;8.320;2023-08-31T15:26:11;17.20;2.30
12847;DHT22;6492;48.128;8.320;2023-08-31T15:30:18;17.00;1.00
12847;DHT22;6492;48.128;8.320;2023-08-31T15:34:20;16.70;1.00
12847;DHT22;6492;48.128;8.320;2023-08-31T15:38:22;16.70;1.80
12847;DHT22;6492;48.128;8.320;2023-08-31T15:42:25;16.60;2.70
12847;DHT22;6492;48.128;8.320;2023-08-31T15:46:29;16.60;3.20
12847;DHT22;6492;48.128;8.320;2023-08-31T15:50:31;16.40;2.90
12847;DHT22;6492;48.128;8.320;2023-08-31T15:54:34;16.30;2.70
12847;DHT22;6492;48.128;8.320;2023-08-31T15:58:36;16.40;4.30
12847;DHT22;6492;48.128;8.320;2023-08-31T16:02:39;16.30;4.50
12847;DHT22;6492;48.128;8.320;2023-08-31T16:06:41;16.20;3.60
12847;DHT22;6492;48.128;8.320;2023-08-31T16:10:45;16.40;3.90
12847;DHT22;6492;48.128;8.320;2023-08-31T16:14:47;16.50;3.50
12847;DHT22;6492;48.128;8.320;2023-08-31T16:18:53;16.70;4.00
12847;DHT22;6492;48.128;8.320;2023-08-31T16:22:54;16.80;2.70
12847;DHT22;6492;48.128;8.320;2023-08-31T16:26:56;16.60;3.70
12847;DHT22;6492;48.128;8.320;2023-08-31T16:30:58;16.40;4.00
12847;DHT22;6492;48.128;8.320;2023-08-31T16:35:03;16.10;3.10
12847;DHT22;6492;48.128;8.320;2023-08-31T16:39:05;16.00;5.20
12847;DHT22;6492;48.128;8.320;2023-08-31T16:43:06;15.90;5.50
12847;DHT22;6492;48.128;8.320;2023-08-31T16:47:08;15.90;5.80
12847;DHT22;6492;48.128;8.320;2023-08-31T16:51:12;16.00;6.50
12847;DHT22;6492;48.128;8.320;2023-08-31T16:55:13;16.00;6.60
12847;DHT22;6492;48.128;8.320;2023-08-31T16:59:16;16.00;6.00
12847;DHT22;6492;48.128;8.320;2023-08-31T17:03:17;15.80;5.20
12847;DHT22;6492;48.128;8.320;2023-08-31T17:07:21;15.70;5.50
12847;DHT22;6492;48.128;8.320;2023-08-31T17:11:22;15.50;5.60
12847;DHT22;6492;48.128;8.320;2023-08-31T17:15:24;15.40;6.30
12847;DHT22;6492;48.128;8.320;2023-08-31T17:19:26;15.20;6.60
12847;DHT22;6492;48.128;8.320;2023-08-31T17:23:30;15.00;6.90
12847;DHT22;6492;48.128;8.320;2023-08-31T17:27:31;14.80;7.10
12847;DHT22;6492;48.128;8.320;2023-08-31T17:31:44;14.60;7.10
12847;DHT22;6492;48.128;8.320;2023-08-31T17:35:46;14.40;8.30
12847;DHT22;6492;48.128;8.320;2023-08-31T17:39:49;14.20;8.80
12847;DHT22;6492;48.128;8.320;2023-08-31T17:43:52;14.10;9.90
12847;DHT22;6492;48.128;8.320;2023-08-31T17:47:53;14.00;10.60
12847;DHT22;6492;48.128;8.320;2023-08-31T17:51:55;13.80;11.30
12847;DHT22;6492;48.128;8.320;2023-08-31T17:55:59;13.70;11.60
12847;DHT22;6492;48.128;8.320;2023-08-31T18:00:01;13.60;12.10
12847;DHT22;6492;48.128;8.320;2023-08-31T18:04:07;13.50;12.50
12847;DHT22;6492;48.128;8.320;2023-08-31T18:08:12;13.40;13.40
12847;DHT22;6492;48.128;8.320;2023-08-31T18:12:15;13.30;14.10
12847;DHT22;6492;48.128;8.320;2023-08-31T18:16:17;13.30;14.70
12847;DHT22;6492;48.128;8.320;2023-08-31T18:20:21;13.10;14.50
12847;DHT22;6492;48.128;8.320;2023-08-31T18:24:26;13.10;15.20
12847;DHT22;6492;48.128;8.320;2023-08-31T18:28:30;13.00;15.60
12847;DHT22;6492;48.128;8.320;2023-08-31T18:32:32;13.00;16.40
12847;DHT22;6492;48.128;8.320;2023-08-31T18:36:34;12.90;16.80
12847;DHT22;6492;48.128;8.320;2023-08-31T18:40:36;12.80;17.30
12847;DHT22;6492;48.128;8.320;2023-08-31T18:44:40;12.80;18.30
12847;DHT22;6492;48.128;8.320;2023-08-31T18:48:41;12.80;18.90
12847;DHT22;6492;48.128;8.320;2023-08-31T18:52:43;12.70;19.20
12847;DHT22;6492;48.128;8.320;2023-08-31T18:56:45;12.70;19.30
12847;DHT22;6492;48.128;8.320;2023-08-31T19:00:49;12.70;20.00
12847;DHT22;6492;48.128;8.320;2023-08-31T19:04:51;12.70;19.70
12847;DHT22;6492;48.128;8.320;2023-08-31T19:08:56;12.70;20.00
12847;DHT22;6492;48.128;8.320;2023-08-31T19:12:58;12.70;20.10
12847;DHT22;6492;48.128;8.320;2023-08-31T19:17:08;12.70;20.50
12847;DHT22;6492;48.128;8.320;2023-08-31T19:21:10;12.70;20.20
12847;DHT22;6492;48.128;8.320;2023-08-31T19:25:12;12.70;20.70
12847;DHT22;6492;48.128;8.320;2023-08-31T19:29:19;12.70;21.40
12847;DHT22;6492;48.128;8.320;2023-08-31T19:33:22;12.70;21.40
12847;DHT22;6492;48.128;8.320;2023-08-31T19:37:31;12.70;21.60
12847;DHT22;6492;48.128;8.320;2023-08-31T19:41:33;12.70;22.00
12847;DHT22;6492;48.128;8.320;2023-08-31T19:45:35;12.80;22.10
12847;DHT22;6492;48.128;8.320;2023-08-31T19:49:38;12.80;22.30
12847;DHT22;6492;48.128;8.320;2023-08-31T19:53:40;12.80;22.40
12847;DHT22;6492;48.128;8.320;2023-08-31T19:57:42;12.80;22.80
12847;DHT22;6492;48.128;8.320;2023-08-31T20:01:44;12.70;24.50
12847;DHT22;6492;48.128;8.320;2023-08-31T20:05:47;12.70;25.10
12847;DHT22;6492;48.128;8.320;2023-08-31T20:09:48;12.60;25.50
12847;DHT22;6492;48.128;8.320;2023-08-31T20:13:51;12.60;25.90
12847;DHT22;6492;48.128;8.320;2023-08-31T20:17:56;12.50;26.40
12847;DHT22;6492;48.128;8.320;2023-08-31T20:21:59;12.50;27.50
12847;DHT22;6492;48.128;8.320;2023-08-31T20:26:01;12.40;29.60
12847;DHT22;6492;48.128;8.320;2023-08-31T20:30:03;12.30;32.40
12847;DHT22;6492;48.128;8.320;2023-08-31T20:34:07;12.20;34.20
12847;DHT22;6492;48.128;8.320;2023-08-31T20:38:10;12.20;35.90
12847;DHT22;6492;48.128;8.320;2023-08-31T20:42:12;12.10;37.40
12847;DHT22;6492;48.128;8.320;2023-08-31T20:46:14;12.00;39.60
12847;DHT22;6492;48.128;8.320;2023-08-31T20:50:19;12.00;41.60
12847;DHT22;6492;48.128;8.320;2023-08-31T20:54:26;11.90;44.70
12847;DHT22;6492;48.128;8.320;2023-08-31T20:58:27;11.80;47.00
12847;DHT22;6492;48.128;8.320;2023-08-31T21:02:29;11.70;51.00
12847;DHT22;6492;48.128;8.320;2023-08-31T21:06:31;11.60;52.90
12847;DHT22;6492;48.128;8.320;2023-08-31T21:10:35;11.50;55.90
12847;DHT22;6492;48.128;8.320;2023-08-31T21:14:37;11.40;57.70
12847;DHT22;6492;48.128;8.320;2023-08-31T21:18:39;11.40;60.10
12847;DHT22;6492;48.128;8.320;2023-08-31T21:22:41;11.40;61.30
12847;DHT22;6492;48.128;8.320;2023-08-31T21:26:44;11.40;62.90
12847;DHT22;6492;48.128;8.320;2023-08-31T21:30:45;11.40;64.20
12847;DHT22;6492;48.128;8.320;2023-08-31T21:34:47;11.40;65.20
12847;DHT22;6492;48.128;8.320;2023-08-31T21:38:49;11.40;65.60
12847;DHT22;6492;48.128;8.320;2023-08-31T21:42:53;11.30;65.80
12847;DHT22;6492;48.128;8.320;2023-08-31T21:46:55;11.40;66.00
12847;DHT22;6492;48.128;8.320;2023-08-31T21:50:56;11.30;65.90
12847;DHT22;6492;48.128;8.320;2023-08-31T21:54:58;11.40;66.30
12847;DHT22;6492;48.128;8.320;2023-08-31T21:59:01;11.40;66.20
12847;DHT22;6492;48.128;8.320;2023-08-31T22:03:03;11.40;65.40
12847;DHT22;6492;48.128;8.320;2023-08-31T22:07:05;11.40;64.30
12847;DHT22;6492;48.128;8.320;2023-08-31T22:11:07;11.50;63.20
12847;DHT22;6492;48.128;8.320;2023-08-31T22:15:15;11.50;62.40
12847;DHT22;6492;48.128;8.320;2023-08-31T22:19:17;11.50;61.40
12847;DHT22;6492;48.128;8.320;2023-08-31T22:23:19;11.60;60.70
12847;DHT22;6492;48.128;8.320;2023-08-31T22:27:21;11.60;58.70
12847;DHT22;6492;48.128;8.320;2023-08-31T22:31:24;11.80;55.20
12847;DHT22;6492;48.128;8.320;2023-08-31T22:35:26;11.90;54.30
12847;DHT22;6492;48.128;8.320;2023-08-31T22:39:28;11.90;53.90
12847;DHT22;6492;48.128;8.320;2023-08-31T22:43:29;12.00;53.90
12847;DHT22;6492;48.128;8.320;2023-08-31T22:47:33;12.00;50.20
12847;DHT22;6492;48.128;8.320;2023-08-31T22:51:34;12.10;50.70
12847;DHT22;6492;48.128;8.320;2023-08-31T22:55:36;12.10;51.10
12847;DHT22;6492;48.128;8.320;2023-08-31T22:59:38;12.10;50.50
12847;DHT22;6492;48.128;8.320;2023-08-31T23:03:43;12.20;49.90
12847;DHT22;6492;48.128;8.320;2023-08-31T23:07:45;12.20;49.30
12847;DHT22;6492;48.128;8.320;2023-08-31T23:11:47;12.30;47.00
12847;DHT22;6492;48.128;8.320;2023-08-31T23:15:50;12.40;45.30
12847;DHT22;6492;48.128;8.320;2023-08-31T23:19:53;12.50;45.70
12847;DHT22;6492;48.128;8.320;2023-08-31T23:23:55;12.60;44.70
12847;DHT22;6492;48.128;8.320;2023-08-31T23:27:56;12.60;44.80
12847;DHT22;6492;48.128;8.320;2023-08-31T23:32:00;12.70;44.20
12847;DHT22;6492;48.128;8.320;2023-08-31T23:36:03;12.80;44.40
12847;DHT22;6492;48.128;8.320;2023-08-31T23:40:06;12.80;43.90
12847;DHT22;6492;48.128;8.320;2023-08-31T23:44:10;13.00;43.10
12847;DHT22;6492;48.128;8.320;2023-08-31T23:48:12;13.00;42.10
12847;DHT22;6492;48.128;8.320;2023-08-31T23:52:15;13.10;40.60
12847;DHT22;6492;48.128;8.320;2023-08-31T23:56:17;13.00;43.50
